Time;durP1;ratioP1;P1;durP2;ratioP2;P2;SDS_P1;SDS_P2;PMS_P1;PMS_P2;Temp;Humidity;BMP_temperature;BMP_pressure;BME280_temperature;BME280_humidity;BME280_pressure;Samples;Min_cycle;Max_cycle;Signal;HPM_P1;HPM_P2
2022/03/02 00:02:22;;;;;;;6.38;3.42;;;;;;;;;;10613374;27;20031;-50
2022/03/02 00:07:22;;;;;;;7.57;3.78;;;;;;;;;;10618801;27;20062;-51
2022/03/02 00:12:23;;;;;;;5.97;3.22;;;;;;;;;;10618916;27;20034;-50
2022/03/02 00:17:23;;;;;;;6.35;3.33;;;;;;;;;;10618600;27;20023;-53
2022/03/02 00:22:24;;;;;;;7.88;3.85;;;;;;;;;;10619059;27;20062;-53
2022/03/02 00:27:24;;;;;;;6.63;3.30;;;;;;;;;;10618947;27;20577;-54
2022/03/02 00:32:25;;;;;;;6.53;3.38;;;;;;;;;;10618826;27;20459;-52
2022/03/02 00:37:25;;;;;;;5.78;3.40;;;;;;;;;;10618213;27;20130;-49
2022/03/02 00:42:25;;;;;;;6.72;3.97;;;;;;;;;;10618020;27;20122;-52
2022/03/02 00:47:26;;;;;;;7.28;3.60;;;;;;;;;;10617732;27;20046;-51
2022/03/02 00:52:27;;;;;;;6.45;3.58;;;;;;;;;;10617590;27;20033;-53
2022/03/02 00:57:27;;;;;;;7.40;3.50;;;;;;;;;;10617147;27;20027;-53
2022/03/02 01:02:28;;;;;;;10.17;3.90;;;;;;;;;;10611847;27;20027;-51
2022/03/02 01:07:28;;;;;;;7.20;3.23;;;;;;;;;;10613818;27;20860;-48
2022/03/02 01:12:28;;;;;;;6.63;3.40;;;;;;;;;;10617344;28;20635;-49
2022/03/02 01:17:29;;;;;;;5.93;3.28;;;;;;;;;;10617462;27;20103;-49
2022/03/02 01:22:29;;;;;;;6.60;3.37;;;;;;;;;;10617067;28;20038;-49
2022/03/02 01:27:30;;;;;;;5.30;3.60;;;;;;;;;;10617730;27;21075;-48
2022/03/02 01:32:30;;;;;;;6.32;3.45;;;;;;;;;;10616997;28;20054;-47
2022/03/02 01:37:31;;;;;;;6.75;3.97;;;;;;;;;;10616497;27;20066;-48
2022/03/02 01:42:31;;;;;;;6.05;3.65;;;;;;;;;;10617004;28;20019;-48
2022/03/02 01:47:31;;;;;;;7.17;3.97;;;;;;;;;;10616813;27;20047;-50
2022/03/02 01:52:32;;;;;;;7.80;3.63;;;;;;;;;;10615940;28;20443;-50
2022/03/02 01:57:32;;;;;;;5.80;3.90;;;;;;;;;;10616477;27;20027;-50
2022/03/02 02:02:33;;;;;;;7.22;3.67;;;;;;;;;;10597999;28;20414;-48
2022/03/02 02:07:33;;;;;;;5.30;3.70;;;;;;;;;;10613346;27;20023;-49
2022/03/02 02:12:34;;;;;;;6.50;3.47;;;;;;;;;;10615967;27;20080;-49
2022/03/02 02:17:35;;;;;;;5.90;3.40;;;;;;;;;;10619885;27;20431;-48
2022/03/02 02:22:54;;;;;;;15.23;4.03;;;;;;;;;;10623942;27;20042;-50
2022/03/02 02:27:54;;;;;;;4.72;3.60;;;;;;;;;;10623435;27;20242;-50
2022/03/02 02:32:54;;;;;;;5.53;3.67;;;;;;;;;;10623246;27;20284;-48
2022/03/02 02:37:57;;;;;;;6.30;3.80;;;;;;;;;;10605238;27;20958;-55
2022/03/02 02:42:58;;;;;;;7.28;3.55;;;;;;;;;;10620607;27;20027;-50
2022/03/02 02:47:58;;;;;;;7.50;3.30;;;;;;;;;;10621566;27;20386;-49
2022/03/02 02:53:01;;;;;;;4.03;3.10;;;;;;;;;;10622336;27;20467;-49
2022/03/02 02:58:02;;;;;;;5.72;3.60;;;;;;;;;;10622153;27;20455;-52
2022/03/02 03:03:04;;;;;;;4.07;3.10;;;;;;;;;;10622126;27;20114;-53
2022/03/02 03:08:07;;;;;;;4.75;3.25;;;;;;;;;;10622283;27;20031;-48
2022/03/02 03:13:08;;;;;;;4.25;3.40;;;;;;;;;;10621760;27;20163;-49
2022/03/02 03:18:08;;;;;;;5.78;3.47;;;;;;;;;;10618371;27;20501;-52
2022/03/02 03:23:09;;;;;;;4.18;3.35;;;;;;;;;;10617878;27;20022;-49
2022/03/02 03:28:09;;;;;;;5.28;3.25;;;;;;;;;;10620634;27;20037;-53
2022/03/02 03:33:10;;;;;;;5.88;3.42;;;;;;;;;;10621249;27;20019;-48
2022/03/02 03:38:10;;;;;;;6.45;3.67;;;;;;;;;;10620322;27;20463;-52
2022/03/02 03:43:11;;;;;;;6.72;3.70;;;;;;;;;;10620500;27;20080;-48
2022/03/02 03:48:11;;;;;;;5.37;3.43;;;;;;;;;;10620143;27;20092;-48
2022/03/02 03:53:12;;;;;;;3.88;3.15;;;;;;;;;;10619955;27;20470;-53
2022/03/02 03:58:13;;;;;;;4.53;3.30;;;;;;;;;;10619493;27;20431;-49
2022/03/02 04:03:14;;;;;;;5.85;3.13;;;;;;;;;;10619692;27;20042;-52
2022/03/02 04:08:15;;;;;;;3.72;2.97;;;;;;;;;;10619403;27;20058;-52
2022/03/02 04:13:15;;;;;;;4.88;3.58;;;;;;;;;;10619781;27;20053;-52
2022/03/02 04:18:16;;;;;;;4.57;3.40;;;;;;;;;;10619513;27;20027;-50
2022/03/02 04:23:16;;;;;;;4.18;3.05;;;;;;;;;;10615693;27;20027;-52
2022/03/02 04:28:17;;;;;;;11.25;2.97;;;;;;;;;;10618464;27;20038;-52
2022/03/02 04:33:17;;;;;;;4.30;2.92;;;;;;;;;;10615352;27;20057;-52
2022/03/02 04:38:18;;;;;;;4.27;3.13;;;;;;;;;;10617156;27;20434;-53
2022/03/02 04:43:18;;;;;;;3.97;3.20;;;;;;;;;;10618348;27;20435;-53
2022/03/02 04:48:19;;;;;;;4.97;3.03;;;;;;;;;;10617935;27;20435;-49
2022/03/02 04:53:23;;;;;;;3.40;2.80;;;;;;;;;;10617854;27;20110;-47
2022/03/02 04:58:23;;;;;;;4.20;3.47;;;;;;;;;;10617469;27;20364;-48
2022/03/02 05:03:24;;;;;;;4.93;3.20;;;;;;;;;;10618253;28;20023;-48
2022/03/02 05:08:24;;;;;;;3.47;2.92;;;;;;;;;;10617892;27;20459;-48
2022/03/02 05:13:24;;;;;;;3.93;3.00;;;;;;;;;;10617554;28;20023;-50
2022/03/02 05:18:25;;;;;;;4.63;3.07;;;;;;;;;;10617234;27;20443;-51
2022/03/02 05:23:26;;;;;;;7.97;3.35;;;;;;;;;;10617334;28;20114;-48
2022/03/02 05:28:27;;;;;;;4.88;3.00;;;;;;;;;;10617828;27;20027;-47
2022/03/02 05:33:27;;;;;;;3.33;2.85;;;;;;;;;;10614384;28;20061;-49
2022/03/02 05:38:27;;;;;;;7.05;3.38;;;;;;;;;;10608240;27;20600;-49
2022/03/02 05:43:28;;;;;;;3.87;3.10;;;;;;;;;;10603504;28;20024;-48
2022/03/02 05:48:28;;;;;;;9.73;2.90;;;;;;;;;;10617537;27;20471;-49
2022/03/02 05:53:29;;;;;;;4.15;2.95;;;;;;;;;;10624734;27;20087;-49
2022/03/02 05:58:29;;;;;;;6.80;2.75;;;;;;;;;;10625055;27;20034;-50
2022/03/02 06:03:31;;;;;;;3.53;2.77;;;;;;;;;;10624220;27;20023;-47
2022/03/02 06:08:32;;;;;;;4.78;3.30;;;;;;;;;;10625042;27;20451;-50
2022/03/02 06:13:32;;;;;;;4.75;2.67;;;;;;;;;;10624020;27;20023;-48
2022/03/02 06:18:33;;;;;;;7.63;2.80;;;;;;;;;;10623852;27;20042;-52
2022/03/02 06:23:33;;;;;;;6.65;3.08;;;;;;;;;;10623581;27;20035;-49
2022/03/02 06:28:34;;;;;;;14.07;2.78;;;;;;;;;;10623353;27;20126;-57
2022/03/02 06:33:35;;;;;;;11.95;3.45;;;;;;;;;;10623414;27;20084;-59
2022/03/02 06:38:35;;;;;;;10.88;5.20;;;;;;;;;;10619649;27;20428;-59
2022/03/02 06:43:55;;;;;;;15.80;6.05;;;;;;;;;;10601040;27;20083;-60
2022/03/02 06:49:01;;;;;;;11.60;6.15;;;;;;;;;;10622726;27;20147;-59
2022/03/02 06:54:04;;;;;;;8.73;6.15;;;;;;;;;;10622511;27;20412;-59
2022/03/02 06:59:07;;;;;;;11.57;6.25;;;;;;;;;;10621280;27;20027;-59
2022/03/02 07:04:12;;;;;;;13.55;6.53;;;;;;;;;;10603891;27;20118;-59
2022/03/02 07:09:14;;;;;;;10.48;6.07;;;;;;;;;;10622157;27;20106;-59
2022/03/02 07:14:16;;;;;;;9.25;6.05;;;;;;;;;;10602810;27;20019;-59
2022/03/02 07:19:16;;;;;;;12.88;6.03;;;;;;;;;;10621346;27;20113;-60
2022/03/02 07:24:19;;;;;;;10.35;5.68;;;;;;;;;;10621581;27;20493;-59
2022/03/02 07:29:21;;;;;;;19.10;6.65;;;;;;;;;;10620984;27;20023;-63
2022/03/02 07:34:24;;;;;;;14.80;6.20;;;;;;;;;;10620584;27;20095;-60
2022/03/02 07:39:25;;;;;;;12.48;6.18;;;;;;;;;;10619955;27;20539;-61
2022/03/02 07:44:27;;;;;;;13.93;6.03;;;;;;;;;;10598854;27;20386;-61
2022/03/02 07:49:28;;;;;;;16.40;6.72;;;;;;;;;;10613990;27;20019;-61
2022/03/02 07:54:29;;;;;;;19.50;6.05;;;;;;;;;;10618167;27;20023;-64
2022/03/02 07:59:42;;;;;;;13.65;5.93;;;;;;;;;;10618724;27;20027;-59
2022/03/02 08:04:43;;;;;;;8.23;5.10;;;;;;;;;;10617602;27;20024;-63
2022/03/02 08:09:43;;;;;;;15.43;6.28;;;;;;;;;;10618763;27;20027;-63
2022/03/02 08:14:44;;;;;;;11.13;5.97;;;;;;;;;;10600137;27;20509;-64
2022/03/02 08:19:46;;;;;;;10.20;5.47;;;;;;;;;;10618730;27;20070;-59
2022/03/02 08:24:54;;;;;;;13.70;5.82;;;;;;;;;;10616939;27;20054;-61
2022/03/02 08:29:56;;;;;;;11.55;5.75;;;;;;;;;;10617916;27;20107;-66
2022/03/02 08:34:57;;;;;;;12.35;5.70;;;;;;;;;;10617858;27;20050;-66
2022/03/02 08:39:58;;;;;;;9.95;5.20;;;;;;;;;;10595121;27;20055;-63
2022/03/02 08:44:59;;;;;;;7.25;5.35;;;;;;;;;;10616499;27;20103;-61
2022/03/02 08:50:01;;;;;;;5.82;5.10;;;;;;;;;;10614926;27;20135;-61
2022/03/02 08:55:06;;;;;;;7.25;5.40;;;;;;;;;;10614635;27;20106;-59
2022/03/02 09:00:07;;;;;;;9.52;5.47;;;;;;;;;;10616947;27;20031;-59
2022/03/02 09:05:08;;;;;;;10.93;5.75;;;;;;;;;;10616720;28;20347;-62
2022/03/02 09:10:09;;;;;;;11.23;6.20;;;;;;;;;;10616374;27;20106;-61
2022/03/02 09:15:09;;;;;;;9.25;5.38;;;;;;;;;;10616590;28;20060;-62
2022/03/02 09:20:10;;;;;;;8.70;5.45;;;;;;;;;;10598250;28;20043;-62
2022/03/02 09:25:10;;;;;;;9.45;6.07;;;;;;;;;;10622836;27;20023;-61
2022/03/02 09:30:12;;;;;;;11.40;5.13;;;;;;;;;;10626366;27;20027;-61
2022/03/02 09:35:15;;;;;;;10.90;5.90;;;;;;;;;;10607696;27;20019;-61
2022/03/02 09:40:27;;;;;;;9.43;5.57;;;;;;;;;;10624801;27;20051;-61
2022/03/02 09:45:30;;;;;;;8.32;4.85;;;;;;;;;;10624657;27;20421;-62
2022/03/02 09:50:33;;;;;;;24.85;10.68;;;;;;;;;;10624894;27;20474;-60
2022/03/02 09:55:35;;;;;;;48.20;21.23;;;;;;;;;;10621333;27;20047;-53
2022/03/02 10:00:36;;;;;;;49.05;25.02;;;;;;;;;;10621370;27;20031;-59
2022/03/02 10:05:37;;;;;;;57.35;29.48;;;;;;;;;;10624110;27;20455;-59
2022/03/02 10:10:40;;;;;;;58.90;31.52;;;;;;;;;;10606575;27;20058;-59
2022/03/02 10:15:42;;;;;;;61.63;31.50;;;;;;;;;;10624159;27;20132;-59
2022/03/02 10:20:49;;;;;;;62.88;34.22;;;;;;;;;;10623933;27;20043;-59
2022/03/02 10:25:50;;;;;;;60.70;34.78;;;;;;;;;;10623999;27;20080;-59
2022/03/02 10:31:13;;;;;;;64.63;36.10;;;;;;;;;;10623925;27;20072;-61
2022/03/02 10:36:14;;;;;;;61.20;33.88;;;;;;;;;;10603093;27;20047;-61
2022/03/02 10:41:15;;;;;;;60.40;35.08;;;;;;;;;;10622627;27;20031;-58
2022/03/02 10:46:21;;;;;;;58.08;32.33;;;;;;;;;;10604400;27;20500;-60
2022/03/02 10:51:23;;;;;;;72.28;38.65;;;;;;;;;;10622940;27;20015;-58
2022/03/02 10:56:26;;;;;;;74.45;41.75;;;;;;;;;;10603434;27;20563;-59
2022/03/02 11:01:27;;;;;;;82.90;43.20;;;;;;;;;;10616295;27;20019;-61
2022/03/02 11:06:28;;;;;;;70.90;40.20;;;;;;;;;;10602726;27;20031;-57
2022/03/02 11:11:32;;;;;;;77.72;44.55;;;;;;;;;;10621985;27;20517;-61
2022/03/02 11:16:33;;;;;;;74.35;43.15;;;;;;;;;;10621611;27;20030;-60
2022/03/02 11:21:35;;;;;;;73.80;43.60;;;;;;;;;;10621449;27;20370;-59
2022/03/02 11:26:39;;;;;;;67.45;42.22;;;;;;;;;;10603171;27;20794;-57
2022/03/02 11:31:50;;;;;;;73.90;43.03;;;;;;;;;;10621108;27;20459;-59
2022/03/02 11:36:56;;;;;;;73.68;44.03;;;;;;;;;;10619291;27;20385;-60
2022/03/02 11:42:02;;;;;;;78.93;47.05;;;;;;;;;;10620587;27;20420;-58
2022/03/02 11:47:08;;;;;;;87.40;49.55;;;;;;;;;;10618778;27;20514;-58
2022/03/02 11:52:12;;;;;;;97.13;52.30;;;;;;;;;;10619355;27;20028;-59
2022/03/02 11:57:16;;;;;;;89.57;54.03;;;;;;;;;;10618864;27;20468;-58
2022/03/02 12:02:19;;;;;;;84.28;49.40;;;;;;;;;;10616878;27;20053;-58
2022/03/02 12:07:21;;;;;;;92.40;51.67;;;;;;;;;;10619572;27;20022;-58
2022/03/02 12:12:22;;;;;;;82.75;48.75;;;;;;;;;;10614531;27;20660;-58
2022/03/02 12:17:33;;;;;;;80.70;47.67;;;;;;;;;;10619287;27;20023;-58
2022/03/02 12:22:46;;;;;;;89.60;52.63;;;;;;;;;;10618373;27;20465;-58
2022/03/02 12:28:07;;;;;;;87.25;53.00;;;;;;;;;;10618112;27;20512;-58
2022/03/02 12:33:08;;;;;;;91.78;53.28;;;;;;;;;;10617491;27;20027;-58
2022/03/02 12:38:10;;;;;;;90.18;54.22;;;;;;;;;;10617993;27;20035;-58
2022/03/02 12:43:14;;;;;;;90.53;53.05;;;;;;;;;;10616860;27;20080;-58
2022/03/02 12:48:16;;;;;;;88.35;54.65;;;;;;;;;;10616214;27;20079;-58
2022/03/02 12:53:17;;;;;;;84.20;49.78;;;;;;;;;;10616130;27;20386;-59
2022/03/02 12:58:17;;;;;;;79.80;48.13;;;;;;;;;;10614505;27;20026;-58
2022/03/02 13:03:26;;;;;;;76.72;47.53;;;;;;;;;;10616726;27;20031;-58
2022/03/02 13:08:52;;;;;;;82.03;48.42;;;;;;;;;;10595338;27;20039;-58
2022/03/02 13:13:53;;;;;;;74.22;45.53;;;;;;;;;;10586277;28;20474;-58
2022/03/02 13:18:58;;;;;;;74.97;46.30;;;;;;;;;;10596358;28;20047;-59
2022/03/02 13:24:13;;;;;;;77.75;44.63;;;;;;;;;;10616705;28;20019;-58
2022/03/02 13:29:14;;;;;;;76.50;45.35;;;;;;;;;;10615131;27;20107;-59
2022/03/02 13:34:16;;;;;;;79.47;44.65;;;;;;;;;;10613997;28;20110;-58
2022/03/02 13:39:19;;;;;;;72.28;43.65;;;;;;;;;;10595393;28;20048;-59
2022/03/02 13:44:37;;;;;;;72.55;42.42;;;;;;;;;;10613581;28;20080;-58
2022/03/02 13:49:58;;;;;;;76.22;42.55;;;;;;;;;;10614550;27;20023;-57
2022/03/02 13:55:24;;;;;;;69.65;41.55;;;;;;;;;;10615184;28;20379;-58
2022/03/02 14:00:26;;;;;;;63.85;39.97;;;;;;;;;;10615003;27;20085;-59
2022/03/02 14:05:27;;;;;;;64.45;39.55;;;;;;;;;;10614719;28;20027;-59
2022/03/02 14:10:27;;;;;;;71.35;40.08;;;;;;;;;;10617095;27;20024;-59
2022/03/02 14:15:30;;;;;;;59.47;38.07;;;;;;;;;;10616274;27;20027;-62
2022/03/02 14:20:34;;;;;;;64.30;38.75;;;;;;;;;;10623455;27;20037;-63
2022/03/02 14:25:36;;;;;;;66.28;39.47;;;;;;;;;;10623556;27;20039;-60
2022/03/02 14:30:38;;;;;;;70.10;39.58;;;;;;;;;;10623728;27;20061;-60
2022/03/02 14:35:39;;;;;;;58.97;37.75;;;;;;;;;;10623143;27;20027;-60
2022/03/02 14:40:42;;;;;;;59.28;36.05;;;;;;;;;;10622803;27;20027;-59
2022/03/02 14:45:48;;;;;;;59.00;36.15;;;;;;;;;;10622427;27;20069;-60
2022/03/02 14:50:53;;;;;;;58.85;35.47;;;;;;;;;;10622806;27;20083;-59
2022/03/02 14:56:00;;;;;;;58.45;36.15;;;;;;;;;;10622104;27;20522;-59
2022/03/02 15:01:02;;;;;;;52.60;32.67;;;;;;;;;;10622471;27;20035;-59
2022/03/02 15:06:03;;;;;;;49.60;29.67;;;;;;;;;;10621449;27;20028;-59
2022/03/02 15:11:08;;;;;;;43.72;27.35;;;;;;;;;;10621003;27;20035;-59
2022/03/02 15:16:09;;;;;;;43.70;26.85;;;;;;;;;;10616639;27;20029;-61
2022/03/02 15:21:09;;;;;;;42.23;26.27;;;;;;;;;;10619554;27;20027;-64
2022/03/02 15:26:09;;;;;;;39.93;25.27;;;;;;;;;;10616780;27;20624;-61
2022/03/02 15:31:10;;;;;;;42.77;25.73;;;;;;;;;;10620633;27;20145;-60
2022/03/02 15:36:11;;;;;;;36.13;24.60;;;;;;;;;;10620382;27;20043;-60
2022/03/02 15:41:22;;;;;;;35.88;22.27;;;;;;;;;;10620782;27;20055;-59
2022/03/02 15:46:23;;;;;;;37.45;23.90;;;;;;;;;;10620205;27;20638;-59
2022/03/02 15:51:23;;;;;;;38.47;23.20;;;;;;;;;;10619616;27;20076;-61
2022/03/02 15:56:24;;;;;;;36.60;22.75;;;;;;;;;;10620002;27;20058;-61
2022/03/02 16:01:25;;;;;;;32.78;21.95;;;;;;;;;;10620035;27;20062;-59
2022/03/02 16:06:26;;;;;;;33.72;21.98;;;;;;;;;;10619415;27;20031;-60
2022/03/02 16:11:31;;;;;;;33.55;21.40;;;;;;;;;;10618663;27;20029;-62
2022/03/02 16:16:35;;;;;;;31.88;21.25;;;;;;;;;;10617341;27;20023;-61
2022/03/02 16:21:44;;;;;;;34.50;22.23;;;;;;;;;;10617357;27;20048;-61
2022/03/02 16:26:44;;;;;;;;;;;;;;;;;;10614998;27;20057;-59
2022/03/02 16:31:45;;;;;;;29.58;19.30;;;;;;;;;;10595219;27;20326;-59
2022/03/02 16:36:46;;;;;;;29.52;18.45;;;;;;;;;;10617660;27;20046;-59
2022/03/02 16:41:46;;;;;;;32.78;19.98;;;;;;;;;;10617211;27;20505;-61
2022/03/02 16:46:48;;;;;;;28.77;18.90;;;;;;;;;;10617670;27;20038;-60
2022/03/02 16:51:49;;;;;;;25.90;18.08;;;;;;;;;;10598314;27;20985;-61
2022/03/02 16:56:49;;;;;;;25.60;17.33;;;;;;;;;;10616178;27;20030;-60
2022/03/02 17:01:50;;;;;;;30.42;18.23;;;;;;;;;;10617158;27;20546;-63
2022/03/02 17:06:51;;;;;;;27.63;17.17;;;;;;;;;;10617313;27;20028;-63
2022/03/02 17:11:53;;;;;;;25.70;16.15;;;;;;;;;;10615176;27;20019;-58
2022/03/02 17:16:53;;;;;;;25.25;16.30;;;;;;;;;;10615779;27;20026;-59
2022/03/02 17:21:54;;;;;;;29.08;16.92;;;;;;;;;;10615616;28;20462;-59
2022/03/02 17:26:55;;;;;;;25.77;15.47;;;;;;;;;;10617092;27;20028;-59
2022/03/02 17:31:55;;;;;;;24.17;15.27;;;;;;;;;;10613319;28;20424;-57
2022/03/02 17:36:56;;;;;;;27.00;14.77;;;;;;;;;;10613433;27;20351;-58
2022/03/02 17:41:58;;;;;;;26.80;13.73;;;;;;;;;;10615869;28;20056;-58
2022/03/02 17:46:59;;;;;;;19.83;13.52;;;;;;;;;;10622633;27;20027;-53
2022/03/02 17:52:04;;;;;;;24.67;13.57;;;;;;;;;;10622844;27;20019;-56
2022/03/02 17:57:04;;;;;;;36.53;14.05;;;;;;;;;;10607196;27;20466;-58
2022/03/02 18:02:05;;;;;;;24.65;12.80;;;;;;;;;;10623879;27;20031;-54
2022/03/02 18:07:08;;;;;;;37.17;13.18;;;;;;;;;;10618923;27;20184;-55
2022/03/02 18:12:09;;;;;;;45.22;15.00;;;;;;;;;;10619379;27;20077;-55
2022/03/02 18:17:09;;;;;;;28.17;13.80;;;;;;;;;;10622818;27;20035;-56
2022/03/02 18:22:10;;;;;;;29.23;13.47;;;;;;;;;;10619154;27;20057;-58
2022/03/02 18:27:10;;;;;;;33.15;13.43;;;;;;;;;;10617367;27;20075;-57
2022/03/02 18:32:11;;;;;;;35.08;13.50;;;;;;;;;;10619718;27;20089;-57
2022/03/02 18:37:11;;;;;;;29.13;12.82;;;;;;;;;;10615841;27;20542;-55
2022/03/02 18:42:12;;;;;;;27.57;12.53;;;;;;;;;;10619722;27;20502;-56
2022/03/02 18:47:13;;;;;;;22.45;13.00;;;;;;;;;;10620904;27;20458;-56
2022/03/02 18:52:14;;;;;;;30.80;13.57;;;;;;;;;;10621522;27;20076;-56
2022/03/02 18:57:15;;;;;;;28.50;12.63;;;;;;;;;;10620371;27;20374;-58
2022/03/02 19:02:16;;;;;;;24.30;12.68;;;;;;;;;;10621610;27;20027;-54
2022/03/02 19:07:18;;;;;;;20.95;11.93;;;;;;;;;;10622606;27;20371;-56
2022/03/02 19:12:19;;;;;;;26.23;13.23;;;;;;;;;;10621865;27;20340;-57
2022/03/02 19:17:19;;;;;;;22.57;12.50;;;;;;;;;;10621628;27;20034;-56
2022/03/02 19:22:20;;;;;;;19.97;12.17;;;;;;;;;;10621440;27;20509;-56
2022/03/02 19:27:23;;;;;;;28.20;11.80;;;;;;;;;;10603104;27;20069;-56
2022/03/02 19:32:26;;;;;;;22.13;12.68;;;;;;;;;;10622037;27;20031;-56
2022/03/02 19:37:27;;;;;;;17.75;11.07;;;;;;;;;;10620529;27;20051;-57
2022/03/02 19:42:33;;;;;;;21.30;12.15;;;;;;;;;;10616183;27;20023;-59
2022/03/02 19:47:54;;;;;;;22.67;12.07;;;;;;;;;;10620672;27;20023;-57
2022/03/02 19:52:55;;;;;;;17.40;11.70;;;;;;;;;;10617004;27;20061;-55
2022/03/02 19:58:00;;;;;;;23.02;11.88;;;;;;;;;;10620174;27;20037;-58
2022/03/02 20:03:00;;;;;;;23.17;11.70;;;;;;;;;;10620391;27;20084;-56
2022/03/02 20:08:00;;;;;;;17.03;11.37;;;;;;;;;;10619561;27;20024;-55
2022/03/02 20:13:01;;;;;;;20.93;11.93;;;;;;;;;;10620097;27;20466;-54
2022/03/02 20:18:01;;;;;;;21.13;11.90;;;;;;;;;;10619891;27;21008;-56
2022/03/02 20:23:02;;;;;;;18.63;11.10;;;;;;;;;;10618698;27;20050;-61
2022/03/02 20:28:03;;;;;;;20.98;11.25;;;;;;;;;;10619418;27;20019;-61
2022/03/02 20:33:06;;;;;;;18.15;10.50;;;;;;;;;;10600626;27;20051;-58
2022/03/02 20:38:08;;;;;;;16.60;10.00;;;;;;;;;;10618459;27;20162;-60
2022/03/02 20:43:09;;;;;;;17.77;11.10;;;;;;;;;;10618554;27;20099;-53
2022/03/02 20:48:11;;;;;;;16.63;10.32;;;;;;;;;;10618590;27;20031;-56
2022/03/02 20:53:13;;;;;;;16.63;10.80;;;;;;;;;;10615255;27;20027;-58
2022/03/02 20:58:14;;;;;;;18.65;10.50;;;;;;;;;;10613872;27;20066;-51
2022/03/02 21:03:15;;;;;;;17.80;10.20;;;;;;;;;;10617100;27;20060;-56
2022/03/02 21:08:16;;;;;;;17.25;10.80;;;;;;;;;;10617531;27;20077;-57
2022/03/02 21:13:16;;;;;;;16.77;10.20;;;;;;;;;;10617567;27;20019;-57
2022/03/02 21:18:17;;;;;;;16.60;10.07;;;;;;;;;;10599703;27;20106;-57
2022/03/02 21:23:17;;;;;;;16.38;10.15;;;;;;;;;;10626792;27;20938;-59
2022/03/02 21:28:24;;;;;;;18.08;9.85;;;;;;;;;;10625815;27;20019;-57
2022/03/02 21:33:26;;;;;;;19.05;10.20;;;;;;;;;;10626546;27;20486;-58
2022/03/02 21:38:26;;;;;;;20.58;10.52;;;;;;;;;;10625008;27;20067;-59
2022/03/02 21:43:27;;;;;;;32.92;9.85;;;;;;;;;;10625486;27;20054;-60
2022/03/02 21:48:28;;;;;;;26.05;11.55;;;;;;;;;;10625233;27;20023;-60
2022/03/02 21:53:29;;;;;;;18.17;10.57;;;;;;;;;;10625532;27;20031;-61
2022/03/02 21:58:29;;;;;;;26.20;11.10;;;;;;;;;;10621474;27;20117;-58
2022/03/02 22:03:30;;;;;;;17.73;10.30;;;;;;;;;;10624744;27;20480;-59
2022/03/02 22:08:30;;;;;;;20.58;10.20;;;;;;;;;;10621436;27;20100;-58
2022/03/02 22:13:30;;;;;;;15.43;9.50;;;;;;;;;;10624258;27;20023;-60
2022/03/02 22:18:31;;;;;;;19.70;9.93;;;;;;;;;;10624061;27;20486;-60
2022/03/02 22:23:32;;;;;;;17.33;10.03;;;;;;;;;;10624329;27;20023;-56
2022/03/02 22:28:33;;;;;;;21.50;10.18;;;;;;;;;;10624239;27;20585;-59
2022/03/02 22:33:33;;;;;;;17.90;9.65;;;;;;;;;;10623474;27;20155;-58
2022/03/02 22:38:34;;;;;;;21.42;9.57;;;;;;;;;;10622925;27;20486;-60
2022/03/02 22:43:34;;;;;;;18.98;9.80;;;;;;;;;;10623421;27;20474;-56
2022/03/02 22:48:34;;;;;;;23.97;9.73;;;;;;;;;;10621532;27;20535;-57
2022/03/02 22:53:35;;;;;;;15.87;9.43;;;;;;;;;;10619481;27;20763;-56
2022/03/02 22:58:35;;;;;;;15.83;9.07;;;;;;;;;;10619780;27;20511;-56
2022/03/02 23:03:35;;;;;;;20.45;9.60;;;;;;;;;;10618904;27;20118;-56
2022/03/02 23:14:01;;;;;;;;;;;;;;;;;;10617547;27;20396;-55
2022/03/02 23:19:03;;;;;;;15.05;9.05;;;;;;;;;;10620669;27;20002;-55
2022/03/02 23:24:04;;;;;;;11.85;8.25;;;;;;;;;;10620325;27;20038;-58
2022/03/02 23:29:04;;;;;;;16.50;9.30;;;;;;;;;;10621451;27;20027;-57
2022/03/02 23:34:04;;;;;;;16.73;9.00;;;;;;;;;;10622175;27;20363;-56
2022/03/02 23:39:05;;;;;;;13.77;7.70;;;;;;;;;;10620603;27;20064;-57
2022/03/02 23:44:06;;;;;;;18.25;8.60;;;;;;;;;;10620583;27;21025;-56
2022/03/02 23:49:06;;;;;;;11.30;8.05;;;;;;;;;;10620246;27;20023;-57
2022/03/02 23:54:08;;;;;;;15.85;8.35;;;;;;;;;;10620426;27;20027;-54
2022/03/02 23:59:10;;;;;;;12.10;7.78;;;;;;;;;;10619965;27;20031;-55
